createdAt,value
2023-05-23T00:01:07.305Z,20.80
2023-05-23T00:03:34.820Z,20.71
2023-05-23T00:06:02.441Z,20.65
2023-05-23T00:08:29.334Z,20.60
2023-05-23T00:10:56.104Z,20.53
2023-05-23T00:13:23.025Z,20.46
2023-05-23T00:15:49.829Z,20.40
2023-05-23T00:18:16.743Z,20.35
2023-05-23T00:20:43.908Z,20.31
2023-05-23T00:23:14.919Z,20.29
2023-05-23T00:25:42.499Z,20.26
2023-05-23T00:28:09.354Z,20.24
2023-05-23T00:30:36.232Z,20.19
2023-05-23T00:33:03.829Z,20.19
2023-05-23T00:35:30.714Z,20.22
2023-05-23T00:37:57.483Z,20.23
2023-05-23T00:40:24.981Z,20.18
2023-05-23T00:42:51.755Z,20.15
2023-05-23T00:45:18.617Z,20.15
2023-05-23T00:47:47.838Z,20.16
2023-05-23T00:50:15.942Z,20.12
2023-05-23T00:52:45.154Z,20.07
2023-05-23T00:55:15.856Z,20.06
2023-05-23T00:57:44.453Z,20.03
2023-05-23T01:00:15.649Z,19.99
2023-05-23T01:02:51.389Z,19.97
2023-05-23T01:05:18.679Z,19.92
2023-05-23T01:07:47.280Z,19.89
2023-05-23T01:10:15.729Z,19.90
2023-05-23T01:12:58.525Z,19.87
2023-05-23T01:15:44.060Z,19.86
2023-05-23T01:18:17.963Z,19.85
2023-05-23T01:20:54.588Z,19.85
2023-05-23T01:24:08.921Z,19.83
2023-05-23T01:26:54.039Z,19.79
2023-05-23T01:29:32.364Z,19.77
2023-05-23T01:32:01.217Z,19.72
2023-05-23T01:34:29.277Z,19.70
2023-05-23T01:36:58.864Z,19.69
2023-05-23T01:39:26.383Z,19.67
2023-05-23T01:41:54.889Z,19.64
2023-05-23T01:44:22.561Z,19.60
2023-05-23T01:46:49.416Z,19.58
2023-05-23T01:49:17.983Z,19.58
2023-05-23T01:51:46.045Z,19.59
2023-05-23T01:54:14.532Z,19.58
2023-05-23T01:56:43.150Z,19.58
2023-05-23T01:59:10.407Z,19.54
2023-05-23T02:01:38.819Z,19.52
2023-05-23T02:04:05.957Z,19.52
2023-05-23T02:06:33.212Z,19.51
2023-05-23T02:09:00.220Z,19.50
2023-05-23T02:11:27.219Z,19.47
2023-05-23T02:13:54.087Z,19.46
2023-05-23T02:16:21.750Z,19.48
2023-05-23T02:18:49.402Z,19.49
2023-05-23T02:21:16.529Z,19.51
2023-05-23T02:23:43.546Z,19.51
2023-05-23T02:26:10.416Z,19.45
2023-05-23T02:28:37.381Z,19.42
2023-05-23T02:31:04.435Z,19.40
2023-05-23T02:33:32.583Z,19.39
2023-05-23T02:36:01.606Z,19.37
2023-05-23T02:38:29.569Z,19.33
2023-05-23T02:40:57.803Z,19.33
2023-05-23T02:43:24.573Z,19.30
2023-05-23T02:45:51.903Z,19.29
2023-05-23T02:48:18.972Z,19.32
2023-05-23T02:50:45.905Z,19.34
2023-05-23T02:53:12.730Z,19.35
2023-05-23T02:55:39.784Z,19.38
2023-05-23T02:58:07.141Z,19.38
2023-05-23T03:00:34.214Z,19.34
2023-05-23T03:03:01.838Z,19.31
2023-05-23T03:05:28.718Z,19.32
2023-05-23T03:07:55.617Z,19.35
2023-05-23T03:10:22.470Z,19.34
2023-05-23T03:12:49.287Z,19.29
2023-05-23T03:15:17.220Z,19.22
2023-05-23T03:17:44.848Z,19.18
2023-05-23T03:20:12.117Z,19.15
2023-05-23T03:22:39.469Z,19.16
2023-05-23T03:25:06.867Z,19.16
2023-05-23T03:27:33.626Z,19.18
2023-05-23T03:30:01.224Z,19.14
2023-05-23T03:32:28.201Z,19.07
2023-05-23T03:34:55.021Z,18.99
2023-05-23T03:37:22.027Z,18.94
2023-05-23T03:39:48.801Z,18.90
2023-05-23T03:42:15.720Z,18.88
2023-05-23T03:44:42.524Z,18.85
2023-05-23T03:47:09.495Z,18.84
2023-05-23T03:49:38.939Z,18.80
2023-05-23T03:52:05.818Z,18.77
2023-05-23T03:54:32.568Z,18.76
2023-05-23T03:56:59.328Z,18.75
2023-05-23T03:59:26.472Z,18.77
2023-05-23T04:01:53.499Z,18.82
2023-05-23T04:04:21.124Z,18.83
2023-05-23T04:06:49.213Z,18.81
2023-05-23T04:09:16.173Z,18.77
2023-05-23T04:11:45.253Z,18.71
2023-05-23T04:14:12.504Z,18.72
2023-05-23T04:16:42.003Z,18.74
2023-05-23T04:19:09.150Z,18.67
2023-05-23T04:21:36.239Z,18.64
2023-05-23T04:24:15.091Z,18.64
2023-05-23T04:26:43.509Z,18.63
2023-05-23T04:29:12.307Z,18.62
2023-05-23T04:31:39.488Z,18.59
2023-05-23T04:34:08.266Z,18.61
2023-05-23T04:36:38.735Z,18.59
2023-05-23T04:39:08.030Z,18.55
2023-05-23T04:41:40.270Z,18.52
2023-05-23T04:44:30.342Z,18.53
2023-05-23T04:47:21.250Z,18.54
2023-05-23T04:50:08.672Z,18.53
2023-05-23T04:52:35.757Z,18.57
2023-05-23T04:55:02.884Z,18.60
2023-05-23T04:57:29.747Z,18.63
2023-05-23T04:59:57.476Z,18.69
2023-05-23T05:02:27.122Z,18.72
2023-05-23T05:04:54.086Z,18.78
2023-05-23T05:07:21.033Z,18.84
2023-05-23T05:09:48.042Z,18.89
2023-05-23T05:12:14.833Z,18.92
2023-05-23T05:14:41.878Z,18.94
2023-05-23T05:17:09.467Z,18.93
2023-05-23T05:19:46.470Z,18.91
2023-05-23T05:22:15.225Z,18.96
2023-05-23T05:24:42.559Z,19.01
2023-05-23T05:27:11.653Z,19.01
2023-05-23T05:29:38.423Z,19.04
2023-05-23T05:32:09.012Z,19.14
2023-05-23T05:34:37.904Z,19.40
2023-05-23T05:37:05.282Z,19.65
2023-05-23T05:39:32.320Z,19.68
2023-05-23T05:42:01.307Z,19.79
2023-05-23T05:44:28.195Z,19.87
2023-05-23T05:46:55.783Z,19.93
2023-05-23T05:49:22.766Z,19.97
2023-05-23T05:51:50.268Z,20.05
2023-05-23T05:54:19.184Z,20.19
2023-05-23T05:56:47.728Z,20.46
2023-05-23T05:59:15.845Z,20.62
2023-05-23T06:01:42.751Z,20.71
2023-05-23T06:04:11.426Z,20.68
2023-05-23T06:06:38.422Z,20.73
2023-05-23T06:09:05.533Z,20.72
2023-05-23T06:11:32.643Z,20.75
2023-05-23T06:14:00.046Z,20.73
2023-05-23T06:16:27.145Z,20.77
2023-05-23T06:18:55.145Z,20.74
2023-05-23T06:21:23.585Z,20.75
2023-05-23T06:23:52.375Z,20.96
2023-05-23T06:26:19.260Z,21.29
2023-05-23T06:28:46.385Z,21.46
2023-05-23T06:31:13.309Z,21.54
2023-05-23T06:33:40.348Z,21.53
2023-05-23T06:36:07.531Z,21.36
2023-05-23T06:38:34.227Z,21.30
2023-05-23T06:41:03.819Z,21.20
2023-05-23T06:43:31.253Z,21.11
2023-05-23T06:46:12.900Z,21.04
2023-05-23T06:48:39.828Z,20.96
2023-05-23T06:51:06.772Z,20.90
2023-05-23T06:53:34.386Z,20.93
2023-05-23T06:56:01.592Z,21.00
2023-05-23T06:58:30.500Z,20.97
2023-05-23T07:01:00.911Z,20.95
2023-05-23T07:03:31.713Z,20.92
2023-05-23T07:06:05.359Z,20.90
2023-05-23T07:08:32.389Z,20.97
2023-05-23T07:11:00.669Z,20.96
2023-05-23T07:13:38.526Z,20.87
2023-05-23T07:16:06.342Z,20.88
2023-05-23T07:18:38.431Z,20.79
2023-05-23T07:21:05.837Z,20.73
2023-05-23T07:23:34.714Z,20.64
2023-05-23T07:26:03.318Z,20.53
2023-05-23T07:28:51.407Z,20.47
2023-05-23T07:31:19.012Z,20.62
2023-05-23T07:33:46.599Z,20.92
2023-05-23T07:36:20.104Z,21.58
2023-05-23T07:38:49.810Z,22.49
2023-05-23T07:41:17.052Z,23.18
2023-05-23T07:43:44.081Z,23.42
2023-05-23T07:46:13.382Z,23.58
2023-05-23T07:48:40.707Z,23.71
2023-05-23T07:51:07.736Z,23.64
2023-05-23T07:53:35.159Z,23.74
2023-05-23T07:56:03.831Z,23.98
2023-05-23T07:58:36.052Z,23.84
2023-05-23T08:01:03.702Z,23.53
2023-05-23T08:03:49.167Z,23.16
2023-05-23T08:06:22.680Z,22.94
2023-05-23T08:08:49.755Z,22.84
2023-05-23T08:11:17.115Z,22.88
2023-05-23T08:13:49.283Z,22.85
2023-05-23T08:16:38.884Z,22.79
2023-05-23T08:19:17.373Z,22.86
2023-05-23T08:21:44.813Z,23.10
2023-05-23T08:24:15.146Z,23.24
2023-05-23T08:26:44.517Z,23.30
2023-05-23T08:29:13.929Z,23.30
2023-05-23T08:31:42.430Z,23.23
2023-05-23T08:34:11.634Z,23.09
2023-05-23T08:36:40.083Z,22.95
2023-05-23T08:39:11.762Z,22.78
2023-05-23T08:42:07.627Z,22.72
2023-05-23T08:44:34.912Z,23.91
2023-05-23T08:47:07.831Z,26.07
2023-05-23T08:49:59.790Z,31.67
2023-05-23T08:52:30.176Z,35.12
2023-05-23T08:55:00.876Z,38.04
2023-05-23T08:57:30.538Z,40.19
2023-05-23T09:00:11.161Z,41.10
2023-05-23T09:02:39.198Z,38.42
2023-05-23T09:05:20.850Z,36.34
2023-05-23T09:07:49.418Z,39.08
2023-05-23T09:10:20.384Z,41.63
2023-05-23T09:12:47.520Z,43.80
2023-05-23T09:15:14.854Z,41.56
2023-05-23T09:17:41.899Z,40.97
2023-05-23T09:20:15.246Z,37.46
2023-05-23T09:22:49.441Z,34.36
2023-05-23T09:25:18.006Z,34.85
2023-05-23T09:27:48.071Z,36.43
2023-05-23T09:30:16.011Z,34.34
2023-05-23T09:32:44.757Z,31.83
2023-05-23T09:35:16.032Z,30.65
2023-05-23T09:37:47.405Z,35.36
2023-05-23T09:40:15.388Z,37.95
2023-05-23T09:42:52.992Z,39.66
2023-05-23T09:45:19.971Z,37.58
2023-05-23T09:47:53.895Z,37.56
2023-05-23T09:50:21.762Z,37.83
2023-05-23T09:52:49.585Z,37.66
2023-05-23T09:55:16.684Z,38.55
2023-05-23T09:57:44.330Z,38.97
2023-05-23T10:00:13.937Z,37.29
2023-05-23T10:03:10.765Z,34.46
2023-05-23T10:05:47.755Z,32.28
2023-05-23T10:08:19.188Z,30.64
2023-05-23T10:11:14.735Z,29.11
2023-05-23T10:13:44.922Z,28.16
2023-05-23T10:16:14.704Z,27.33
2023-05-23T10:18:45.786Z,26.53
2023-05-23T10:21:15.774Z,25.80
2023-05-23T10:23:47.111Z,25.30
2023-05-23T10:26:14.153Z,25.14
2023-05-23T10:28:42.270Z,25.22
2023-05-23T10:31:10.641Z,25.54
2023-05-23T10:33:47.651Z,25.93
2023-05-23T10:36:45.194Z,26.25
2023-05-23T10:39:28.350Z,26.66
2023-05-23T10:42:08.980Z,27.51
2023-05-23T10:44:36.848Z,28.40
2023-05-23T10:47:04.710Z,29.08
2023-05-23T10:49:44.514Z,29.46
2023-05-23T10:52:14.127Z,30.21
2023-05-23T10:54:46.839Z,30.05
2023-05-23T10:57:19.480Z,29.34
2023-05-23T10:59:47.514Z,28.69
2023-05-23T11:02:19.523Z,28.27
2023-05-23T11:04:49.023Z,27.63
2023-05-23T11:07:32.804Z,26.75
2023-05-23T11:10:11.300Z,26.39
2023-05-23T11:12:40.979Z,26.25
2023-05-23T11:15:28.135Z,26.12
2023-05-23T11:17:57.536Z,26.02
2023-05-23T11:20:28.659Z,26.04
2023-05-23T11:23:00.725Z,26.05
2023-05-23T11:25:57.224Z,26.09
2023-05-23T11:28:24.533Z,26.13
2023-05-23T11:30:51.535Z,26.41
2023-05-23T11:33:19.133Z,26.83
2023-05-23T11:35:48.775Z,28.73
2023-05-23T11:38:17.035Z,29.87
2023-05-23T11:40:46.431Z,30.14
2023-05-23T11:43:16.848Z,29.52
2023-05-23T11:45:44.176Z,28.51
2023-05-23T11:48:16.620Z,27.46
2023-05-23T11:50:52.321Z,26.42
2023-05-23T11:53:21.915Z,25.80
2023-05-23T11:55:55.828Z,25.40
2023-05-23T11:58:26.149Z,25.15
2023-05-23T12:00:55.345Z,25.12
2023-05-23T12:03:22.786Z,25.05
2023-05-23T12:05:49.808Z,25.02
2023-05-23T12:08:17.866Z,25.34
2023-05-23T12:10:57.053Z,25.80
2023-05-23T12:13:29.398Z,26.51
2023-05-23T12:16:00.765Z,26.99
2023-05-23T12:18:29.853Z,27.23
2023-05-23T12:21:01.358Z,27.62
2023-05-23T12:23:28.756Z,27.95
2023-05-23T12:25:57.102Z,28.19
2023-05-23T12:28:37.464Z,28.39
2023-05-23T12:31:22.393Z,28.46
2023-05-23T12:33:50.210Z,28.22
2023-05-23T12:36:25.173Z,28.06
2023-05-23T12:38:52.254Z,27.92
2023-05-23T12:41:20.749Z,27.89
2023-05-23T12:43:55.474Z,27.73
2023-05-23T12:46:25.168Z,27.51
2023-05-23T12:48:53.255Z,27.49
2023-05-23T12:51:21.469Z,27.66
2023-05-23T12:53:50.096Z,27.70
2023-05-23T12:56:21.046Z,27.70
2023-05-23T12:58:48.486Z,27.69
2023-05-23T13:01:15.341Z,27.82
2023-05-23T13:03:45.070Z,28.05
2023-05-23T13:06:14.983Z,28.21
2023-05-23T13:08:42.756Z,28.20
2023-05-23T13:11:09.654Z,27.79
2023-05-23T13:13:39.133Z,27.57
2023-05-23T13:16:07.184Z,27.38
2023-05-23T13:18:34.001Z,27.30
2023-05-23T13:21:00.925Z,27.30
2023-05-23T13:23:28.614Z,27.10
2023-05-23T13:25:58.073Z,26.90
2023-05-23T13:28:25.971Z,26.68
2023-05-23T13:30:53.025Z,26.49
2023-05-23T13:33:25.877Z,26.53
2023-05-23T13:35:54.653Z,26.67
2023-05-23T13:38:22.742Z,26.83
2023-05-23T13:40:51.908Z,26.85
2023-05-23T13:43:19.047Z,26.73
2023-05-23T13:45:47.358Z,26.72
2023-05-23T13:48:14.554Z,26.51
2023-05-23T13:50:43.289Z,26.35
2023-05-23T13:53:15.567Z,26.21
2023-05-23T13:55:43.846Z,26.39
2023-05-23T13:58:13.866Z,26.67
2023-05-23T14:00:41.500Z,26.95
2023-05-23T14:03:11.520Z,27.09
2023-05-23T14:05:39.378Z,27.09
2023-05-23T14:08:07.067Z,27.08
2023-05-23T14:10:34.149Z,27.01
2023-05-23T14:13:01.532Z,27.06
2023-05-23T14:15:28.631Z,27.17
2023-05-23T14:17:57.341Z,27.15
2023-05-23T14:20:25.123Z,27.21
2023-05-23T14:22:55.285Z,27.29
2023-05-23T14:25:22.708Z,27.29
2023-05-23T14:27:50.029Z,27.14
2023-05-23T14:30:17.378Z,26.93
2023-05-23T14:32:44.707Z,26.71
2023-05-23T14:35:14.525Z,26.70
2023-05-23T14:37:44.769Z,26.69
2023-05-23T14:40:13.451Z,26.51
2023-05-23T14:42:40.721Z,26.43
2023-05-23T14:45:07.922Z,26.22
2023-05-23T14:47:35.858Z,26.12
2023-05-23T14:50:03.600Z,25.87
2023-05-23T14:52:31.030Z,25.61
2023-05-23T14:54:58.497Z,25.43
2023-05-23T14:57:25.540Z,25.24
2023-05-23T14:59:53.063Z,25.50
2023-05-23T15:02:20.918Z,25.93
2023-05-23T15:04:48.984Z,26.41
2023-05-23T15:07:19.688Z,26.27
2023-05-23T15:09:48.194Z,25.98
2023-05-23T15:12:18.065Z,25.75
2023-05-23T15:14:48.806Z,25.63
2023-05-23T15:17:20.390Z,25.50
2023-05-23T15:19:48.124Z,25.46
2023-05-23T15:22:33.734Z,25.33
2023-05-23T15:25:08.814Z,25.14
2023-05-23T15:27:37.756Z,25.11
2023-05-23T15:30:05.552Z,25.01
2023-05-23T15:32:33.436Z,24.87
2023-05-23T15:35:00.653Z,24.71
2023-05-23T15:37:27.749Z,24.59
2023-05-23T15:39:57.721Z,24.44
2023-05-23T15:42:25.712Z,24.45
2023-05-23T15:44:53.064Z,24.43
2023-05-23T15:47:20.938Z,24.37
2023-05-23T15:49:48.105Z,24.22
2023-05-23T15:52:15.466Z,23.87
2023-05-23T15:54:42.290Z,23.45
2023-05-23T15:57:11.881Z,23.16
2023-05-23T15:59:39.604Z,23.00
2023-05-23T16:02:06.927Z,22.90
2023-05-23T16:04:36.139Z,22.85
2023-05-23T16:07:04.134Z,22.79
2023-05-23T16:09:31.713Z,22.72
2023-05-23T16:11:59.128Z,22.74
2023-05-23T16:14:26.138Z,22.66
2023-05-23T16:16:53.076Z,22.58
2023-05-23T16:19:20.291Z,22.64
2023-05-23T16:24:39.979Z,22.84
2023-05-23T16:27:33.253Z,22.85
2023-05-23T16:30:00.511Z,22.77
2023-05-23T16:32:35.569Z,22.73
2023-05-23T16:35:03.742Z,22.65
2023-05-23T16:37:34.757Z,22.62
2023-05-23T16:40:02.691Z,22.64
2023-05-23T16:42:33.561Z,22.59
2023-05-23T16:45:05.557Z,22.60
2023-05-23T16:47:34.131Z,22.70
2023-05-23T16:50:14.007Z,22.72
2023-05-23T16:52:41.641Z,22.76
2023-05-23T16:55:11.083Z,22.78
2023-05-23T16:57:40.421Z,22.68
2023-05-23T17:00:14.404Z,22.40
2023-05-23T17:02:55.719Z,22.28
2023-05-23T17:05:22.908Z,22.24
2023-05-23T17:07:50.461Z,22.26
2023-05-23T17:10:20.345Z,22.27
2023-05-23T17:12:47.617Z,22.25
2023-05-23T17:15:17.655Z,22.32
2023-05-23T17:17:54.032Z,22.46
2023-05-23T17:20:25.199Z,22.47
2023-05-23T17:22:59.911Z,22.45
2023-05-23T17:25:27.070Z,22.44
2023-05-23T17:27:55.514Z,22.41
2023-05-23T17:30:23.652Z,22.31
2023-05-23T17:35:49.936Z,22.19
2023-05-23T17:38:29.127Z,22.14
2023-05-23T17:41:06.394Z,21.95
2023-05-23T17:43:35.574Z,21.74
2023-05-23T17:46:02.806Z,21.53
2023-05-23T17:48:45.578Z,21.48
2023-05-23T17:51:15.357Z,21.43
2023-05-23T17:53:57.249Z,21.36
2023-05-23T17:56:28.496Z,21.29
2023-05-23T17:58:58.233Z,21.23
2023-05-23T18:01:27.845Z,21.19
2023-05-23T18:03:55.636Z,21.08
2023-05-23T18:06:24.206Z,21.06
2023-05-23T18:09:03.501Z,21.02
2023-05-23T18:11:31.330Z,21.05
2023-05-23T18:14:00.851Z,21.15
2023-05-23T18:16:30.641Z,21.26
2023-05-23T18:19:02.063Z,21.30
2023-05-23T18:21:38.654Z,21.28
2023-05-23T18:24:06.751Z,21.28
2023-05-23T18:26:34.185Z,21.21
2023-05-23T18:29:04.709Z,21.11
2023-05-23T18:31:35.868Z,21.02
2023-05-23T18:34:03.898Z,20.96
2023-05-23T18:36:31.601Z,20.86
2023-05-23T18:38:58.718Z,20.78
2023-05-23T18:41:28.462Z,20.73
2023-05-23T18:43:55.513Z,20.67
2023-05-23T18:46:24.328Z,20.62
2023-05-23T18:48:53.019Z,20.62
2023-05-23T18:51:19.854Z,20.58
2023-05-23T18:53:46.702Z,20.48
2023-05-23T18:56:13.524Z,20.36
2023-05-23T18:58:40.779Z,20.27
2023-05-23T19:01:08.323Z,20.21
2023-05-23T19:03:37.206Z,20.20
2023-05-23T19:06:06.056Z,20.19
2023-05-23T19:08:33.608Z,20.15
2023-05-23T19:11:00.988Z,20.10
2023-05-23T19:13:59.821Z,20.00
2023-05-23T19:19:37.920Z,19.81
2023-05-23T19:22:05.289Z,19.87
2023-05-23T19:24:43.021Z,19.86
2023-05-23T19:27:17.439Z,19.83
2023-05-23T19:29:53.343Z,19.77
2023-05-23T19:32:20.938Z,19.63
2023-05-23T19:34:47.902Z,19.52
2023-05-23T19:37:15.242Z,19.41
2023-05-23T19:39:45.817Z,19.26
2023-05-23T19:42:13.457Z,19.15
2023-05-23T19:44:42.284Z,19.09
2023-05-23T19:47:09.198Z,19.01
2023-05-23T19:49:36.663Z,18.95
2023-05-23T19:52:03.701Z,18.89
2023-05-23T19:54:30.717Z,18.83
2023-05-23T19:56:57.610Z,18.77
2023-05-23T19:59:24.552Z,18.76
2023-05-23T20:01:51.524Z,18.70
2023-05-23T20:04:18.448Z,18.65
2023-05-23T20:06:45.291Z,18.58
2023-05-23T20:09:13.071Z,18.43
2023-05-23T20:11:39.942Z,18.31
2023-05-23T20:14:06.958Z,18.26
2023-05-23T20:16:34.096Z,18.22
2023-05-23T20:19:01.374Z,18.17
2023-05-23T20:21:30.648Z,18.13
2023-05-23T20:23:57.966Z,18.08
2023-05-23T20:26:29.010Z,18.04
2023-05-23T20:28:59.907Z,18.08
2023-05-23T20:31:26.990Z,18.05
2023-05-23T20:33:54.188Z,18.03
2023-05-23T20:36:21.233Z,18.00
2023-05-23T20:38:48.483Z,17.94
2023-05-23T20:41:16.511Z,17.84
2023-05-23T20:43:44.957Z,17.76
2023-05-23T20:46:13.986Z,17.72
2023-05-23T20:48:44.013Z,17.65
2023-05-23T20:51:12.026Z,17.60
2023-05-23T20:53:40.981Z,17.54
2023-05-23T20:56:10.546Z,17.47
2023-05-23T20:58:38.619Z,17.44
2023-05-23T21:01:18.017Z,17.38
2023-05-23T21:03:50.719Z,17.36
2023-05-23T21:06:18.459Z,17.36
2023-05-23T21:08:45.513Z,17.30
2023-05-23T21:11:14.267Z,17.25
2023-05-23T21:13:47.521Z,17.23
2023-05-23T21:16:23.054Z,17.18
2023-05-23T21:18:53.162Z,17.12
2023-05-23T21:21:20.578Z,17.12
2023-05-23T21:23:47.492Z,17.11
2023-05-23T21:26:14.604Z,17.11
2023-05-23T21:28:43.016Z,17.05
2023-05-23T21:31:10.451Z,17.03
2023-05-23T21:33:37.329Z,17.00
2023-05-23T21:36:04.195Z,16.99
2023-05-23T21:38:31.242Z,16.94
2023-05-23T21:40:58.175Z,16.90
2023-05-23T21:43:25.161Z,16.87
2023-05-23T21:45:52.868Z,16.86
2023-05-23T21:48:19.766Z,16.81
2023-05-23T21:50:46.644Z,16.78
2023-05-23T21:53:13.489Z,16.75
2023-05-23T21:55:40.509Z,16.74
2023-05-23T21:58:07.480Z,16.73
2023-05-23T22:00:34.209Z,16.68
2023-05-23T22:03:01.269Z,16.64
2023-05-23T22:05:28.278Z,16.60
2023-05-23T22:07:55.139Z,16.57
2023-05-23T22:10:22.020Z,16.54
2023-05-23T22:12:48.962Z,16.52
2023-05-23T22:15:16.132Z,16.49
2023-05-23T22:17:43.359Z,16.42
2023-05-23T22:20:13.242Z,16.34
2023-05-23T22:22:40.824Z,16.32
2023-05-23T22:25:11.412Z,16.32
2023-05-23T22:27:38.662Z,16.33
2023-05-23T22:30:06.679Z,16.31
2023-05-23T22:32:38.703Z,16.30
2023-05-23T22:35:06.316Z,16.28
2023-05-23T22:37:33.544Z,16.21
2023-05-23T22:40:00.828Z,16.22
2023-05-23T22:42:27.871Z,16.27
2023-05-23T22:44:57.989Z,16.31
2023-05-23T22:47:25.374Z,16.33
2023-05-23T22:49:56.649Z,16.31
2023-05-23T22:52:23.968Z,16.31
2023-05-23T22:54:51.603Z,16.35
2023-05-23T22:57:24.239Z,16.38
2023-05-23T22:59:51.154Z,16.43
2023-05-23T23:02:20.528Z,16.45
2023-05-23T23:04:51.780Z,16.43
2023-05-23T23:07:18.931Z,16.41
2023-05-23T23:09:46.488Z,16.39
2023-05-23T23:12:13.720Z,16.39
2023-05-23T23:14:40.687Z,16.34
2023-05-23T23:17:07.785Z,16.27
2023-05-23T23:19:35.728Z,16.20
2023-05-23T23:22:03.548Z,16.15
2023-05-23T23:24:30.882Z,16.13
2023-05-23T23:26:57.716Z,16.09
2023-05-23T23:29:24.696Z,16.01
2023-05-23T23:31:51.748Z,15.94
2023-05-23T23:34:18.812Z,15.91
2023-05-23T23:36:45.882Z,15.87
2023-05-23T23:39:12.857Z,15.82
2023-05-23T23:41:39.922Z,15.78
2023-05-23T23:44:07.396Z,15.72
2023-05-23T23:46:36.986Z,15.69
2023-05-23T23:49:04.295Z,15.68
2023-05-23T23:51:33.851Z,15.65
2023-05-23T23:54:00.806Z,15.58
2023-05-23T23:56:27.657Z,15.47
2023-05-23T23:58:54.471Z,15.45
